Time;durP1;ratioP1;P1;durP2;ratioP2;P2;SDS_P1;SDS_P2;PMS_P1;PMS_P2;Temp;Humidity;BMP_temperature;BMP_pressure;BME280_temperature;BME280_humidity;BME280_pressure;Samples;Min_cycle;Max_cycle;Signal;HPM_P1;HPM_P2
2024/03/21 00:02:11;;;;;;;1.70;1.37;;;23.30;55.80;;;;;;4995955;28;20200;-67
2024/03/21 00:04:36;;;;;;;2.00;1.70;;;23.30;55.80;;;;;;4995595;28;20185;-67
2024/03/21 00:07:03;;;;;;;1.80;1.60;;;23.30;55.90;;;;;;4996100;28;20187;-65
2024/03/21 00:09:29;;;;;;;1.93;1.43;;;23.30;55.80;;;;;;4995357;28;20193;-66
2024/03/21 00:11:54;;;;;;;1.57;1.30;;;23.30;55.90;;;;;;4978414;28;20832;-67
2024/03/21 00:14:21;;;;;;;2.83;1.63;;;23.30;55.90;;;;;;4995614;28;20205;-65
2024/03/21 00:16:47;;;;;;;2.30;1.57;;;23.30;55.90;;;;;;4995851;28;20192;-67
2024/03/21 00:19:13;;;;;;;2.40;1.80;;;23.30;55.90;;;;;;4995408;28;21046;-64
2024/03/21 00:21:39;;;;;;;2.57;1.97;;;23.30;55.90;;;;;;4996075;28;20412;-66
2024/03/21 00:24:05;;;;;;;1.87;1.60;;;23.30;55.90;;;;;;4995122;28;20416;-67
2024/03/21 00:26:31;;;;;;;2.27;1.60;;;23.30;55.90;;;;;;4995565;28;20207;-66
2024/03/21 00:28:56;;;;;;;1.73;1.40;;;23.30;55.90;;;;;;4995690;28;20177;-66
2024/03/21 00:31:22;;;;;;;1.60;1.50;;;23.30;55.80;;;;;;4995547;28;20691;-67
2024/03/21 00:33:50;;;;;;;1.60;1.27;;;23.30;55.80;;;;;;4995265;28;20177;-67
2024/03/21 00:36:19;;;;;;;2.10;1.30;;;23.30;55.80;;;;;;4995801;28;20184;-67
2024/03/21 00:38:44;;;;;;;1.83;1.43;;;23.30;55.80;;;;;;4995144;28;20428;-67
2024/03/21 00:41:10;;;;;;;1.80;1.37;;;23.30;55.80;;;;;;4995625;28;20567;-66
2024/03/21 00:43:36;;;;;;;1.70;1.40;;;23.30;55.80;;;;;;4995636;28;20185;-67
2024/03/21 00:46:02;;;;;;;2.17;1.40;;;23.30;55.80;;;;;;4995508;28;20184;-67
2024/03/21 00:48:27;;;;;;;1.80;1.40;;;23.30;55.80;;;;;;4977892;28;20181;-67
2024/03/21 00:50:53;;;;;;;2.13;1.50;;;23.30;55.80;;;;;;4996124;28;20216;-67
2024/03/21 00:53:18;;;;;;;2.30;1.50;;;23.30;55.80;;;;;;4999655;28;20173;-68
2024/03/21 00:55:44;;;;;;;2.50;1.70;;;23.20;55.70;;;;;;4998715;28;20181;-66
2024/03/21 00:58:09;;;;;;;2.00;1.60;;;23.30;55.80;;;;;;4999024;28;20237;-67
2024/03/21 01:00:38;;;;;;;1.80;1.40;;;23.30;55.80;;;;;;4998893;28;20199;-66
2024/03/21 01:03:03;;;;;;;1.50;1.30;;;23.30;55.80;;;;;;4999388;28;20180;-66
2024/03/21 01:05:29;;;;;;;1.43;1.20;;;23.30;55.80;;;;;;4999158;28;20929;-67
2024/03/21 01:07:55;;;;;;;2.40;1.33;;;23.20;55.70;;;;;;4999032;28;20670;-67
2024/03/21 01:10:21;;;;;;;1.87;1.67;;;23.30;55.90;;;;;;4998580;28;20208;-67
2024/03/21 01:12:46;;;;;;;1.93;1.50;;;23.20;55.80;;;;;;4998930;28;20442;-67
2024/03/21 01:15:12;;;;;;;2.73;1.67;;;23.20;55.80;;;;;;4998480;28;20256;-66
2024/03/21 01:17:37;;;;;;;1.73;1.27;;;23.20;55.70;;;;;;4998801;28;20180;-67
2024/03/21 01:20:06;;;;;;;1.80;1.40;;;23.20;55.80;;;;;;4998461;28;20189;-67
2024/03/21 01:22:31;;;;;;;2.60;1.60;;;23.20;55.80;;;;;;4998391;28;20169;-65
2024/03/21 01:24:57;;;;;;;2.10;1.80;;;23.20;55.80;;;;;;4999097;28;20423;-65
2024/03/21 01:27:23;;;;;;;2.00;1.20;;;23.20;55.80;;;;;;4998720;28;20181;-67
2024/03/21 01:29:48;;;;;;;1.93;1.57;;;23.20;55.80;;;;;;4999011;28;20200;-66
2024/03/21 01:32:14;;;;;;;1.47;1.37;;;23.20;55.80;;;;;;4998250;28;20240;-66
2024/03/21 01:34:39;;;;;;;1.70;1.30;;;23.20;55.80;;;;;;4998522;28;20180;-66
2024/03/21 01:37:05;;;;;;;2.33;1.43;;;23.20;55.80;;;;;;4998398;28;20646;-65
2024/03/21 01:39:31;;;;;;;1.83;1.50;;;23.20;55.80;;;;;;4998458;28;20197;-66
2024/03/21 01:41:57;;;;;;;1.90;1.30;;;23.20;55.80;;;;;;4998691;28;20280;-66
2024/03/21 01:44:22;;;;;;;2.40;1.60;;;23.20;55.80;;;;;;4998627;28;20872;-66
2024/03/21 01:46:48;;;;;;;2.23;1.30;;;23.20;55.80;;;;;;4998537;28;20185;-66
2024/03/21 01:49:14;;;;;;;1.37;1.10;;;23.20;55.80;;;;;;4998442;28;20212;-65
2024/03/21 01:51:42;;;;;;;1.70;1.30;;;23.20;55.90;;;;;;4980656;28;20263;-65
2024/03/21 01:54:10;;;;;;;1.73;1.40;;;23.20;55.80;;;;;;4998516;28;20451;-67
2024/03/21 01:56:37;;;;;;;1.40;1.30;;;23.20;55.80;;;;;;4998343;28;20408;-67
2024/03/21 01:59:06;;;;;;;1.77;1.27;;;23.20;55.80;;;;;;4997449;28;20424;-67
2024/03/21 02:01:32;;;;;;;1.47;1.20;;;23.20;55.80;;;;;;4997777;28;20416;-66
2024/03/21 02:04:00;;;;;;;2.00;1.50;;;23.20;55.80;;;;;;4996906;28;20408;-66
2024/03/21 02:06:31;;;;;;;1.97;1.40;;;23.20;55.80;;;;;;4997633;28;20910;-66
2024/03/21 02:09:00;;;;;;;4.50;1.77;;;23.20;55.80;;;;;;4998315;28;20432;-66
2024/03/21 02:11:26;;;;;;;1.60;1.27;;;23.20;55.80;;;;;;4997531;28;20463;-66
2024/03/21 02:13:54;;;;;;;1.47;1.30;;;23.20;55.80;;;;;;4997820;28;20554;-66
2024/03/21 02:16:23;;;;;;;2.17;1.60;;;23.20;55.80;;;;;;4998057;28;20440;-67
2024/03/21 02:18:50;;;;;;;2.43;1.50;;;23.20;55.90;;;;;;4998109;28;20491;-66
2024/03/21 02:24:00;;;;;;;1.50;1.13;;;23.10;55.80;;;;;;4997930;28;20466;-65
2024/03/21 02:26:26;;;;;;;1.70;1.50;;;23.10;55.80;;;;;;4997804;28;20420;-66
2024/03/21 02:28:52;;;;;;;2.17;1.50;;;23.10;55.80;;;;;;4997062;28;20214;-66
2024/03/21 02:31:22;;;;;;;1.23;1.13;;;23.10;55.80;;;;;;4997361;28;20276;-67
2024/03/21 02:33:49;;;;;;;1.60;1.50;;;23.10;55.80;;;;;;4997304;28;20424;-67
2024/03/21 02:36:15;;;;;;;1.83;1.47;;;23.10;56.30;;;;;;4997154;28;20412;-67
2024/03/21 02:38:41;;;;;;;1.43;1.30;;;23.10;55.80;;;;;;4997391;28;20423;-67
2024/03/21 02:41:06;;;;;;;1.97;1.30;;;23.10;55.80;;;;;;4996578;28;20440;-67
2024/03/21 02:43:32;;;;;;;1.60;1.40;;;23.10;55.80;;;;;;4997037;28;20232;-66
2024/03/21 02:45:58;;;;;;;1.40;1.27;;;23.10;55.90;;;;;;4997229;28;20647;-66
2024/03/21 02:48:23;;;;;;;1.83;1.30;;;23.10;55.80;;;;;;4996993;28;20580;-67
2024/03/21 02:50:49;;;;;;;1.97;1.43;;;23.10;55.80;;;;;;4996809;28;20208;-67
2024/03/21 02:53:14;;;;;;;1.70;1.40;;;23.10;55.80;;;;;;4996721;28;20173;-66
2024/03/21 02:55:40;;;;;;;1.50;1.20;;;23.10;55.80;;;;;;4997588;28;20333;-66
2024/03/21 02:58:05;;;;;;;1.87;1.23;;;23.10;55.80;;;;;;4996866;28;20598;-67
2024/03/21 03:00:31;;;;;;;1.37;1.20;;;23.10;55.80;;;;;;4997044;28;20251;-66
2024/03/21 03:02:57;;;;;;;1.53;1.30;;;23.10;55.90;;;;;;4996390;28;20185;-67
2024/03/21 03:05:22;;;;;;;1.50;1.20;;;23.10;55.90;;;;;;4996551;28;20686;-67
2024/03/21 03:07:48;;;;;;;1.50;1.20;;;23.10;55.80;;;;;;4996370;28;20187;-67
2024/03/21 03:10:14;;;;;;;2.27;1.47;;;23.10;55.90;;;;;;4996606;28;20674;-67
2024/03/21 03:12:40;;;;;;;1.53;1.20;;;23.10;55.90;;;;;;4996511;28;20172;-67
2024/03/21 03:15:06;;;;;;;1.30;1.20;;;23.10;55.90;;;;;;4979227;28;20491;-67
2024/03/21 03:17:31;;;;;;;1.33;1.20;;;23.10;55.80;;;;;;4996700;28;20224;-67
2024/03/21 03:19:57;;;;;;;2.17;1.60;;;23.10;55.90;;;;;;4996690;28;20193;-67
2024/03/21 03:22:23;;;;;;;1.87;1.40;;;23.10;55.90;;;;;;4996225;28;20177;-67
2024/03/21 03:24:48;;;;;;;1.50;1.20;;;23.10;55.90;;;;;;4996344;28;20177;-65
2024/03/21 03:27:14;;;;;;;2.13;1.60;;;23.10;56.20;;;;;;4996720;28;20177;-67
2024/03/21 03:29:40;;;;;;;2.00;1.40;;;23.10;55.90;;;;;;4996424;28;20220;-67
2024/03/21 03:32:07;;;;;;;2.77;1.20;;;23.10;55.90;;;;;;4995871;28;20200;-67
2024/03/21 03:37:17;;;;;;;1.80;1.30;;;23.00;55.80;;;;;;4996241;28;21017;-67
2024/03/21 03:39:43;;;;;;;2.03;1.33;;;23.00;55.80;;;;;;4996143;28;20511;-66
2024/03/21 03:42:08;;;;;;;1.60;1.20;;;23.00;55.80;;;;;;4995762;28;20173;-68
2024/03/21 03:44:34;;;;;;;2.13;1.33;;;23.00;55.80;;;;;;4995798;28;20181;-67
2024/03/21 03:47:00;;;;;;;1.70;1.20;;;23.00;55.80;;;;;;4996264;28;20213;-67
2024/03/21 03:49:25;;;;;;;1.80;1.30;;;23.00;55.80;;;;;;4996389;28;20577;-67
2024/03/21 03:51:51;;;;;;;1.30;1.17;;;23.00;55.80;;;;;;4995977;28;20268;-67
2024/03/21 03:54:17;;;;;;;1.40;1.13;;;23.00;55.80;;;;;;4995551;28;20177;-67
2024/03/21 03:56:43;;;;;;;1.60;1.40;;;23.00;55.80;;;;;;4995178;28;20177;-67
2024/03/21 03:59:08;;;;;;;1.50;1.20;;;23.00;55.80;;;;;;4978349;28;20423;-67
2024/03/21 04:01:34;;;;;;;1.60;1.30;;;23.00;55.80;;;;;;4996152;28;20211;-67
2024/03/21 04:03:59;;;;;;;1.33;1.13;;;23.00;55.80;;;;;;4995895;28;20169;-66
2024/03/21 04:06:26;;;;;;;2.20;1.40;;;23.00;55.80;;;;;;4995668;28;20212;-66
2024/03/21 04:08:52;;;;;;;1.50;1.33;;;23.00;56.40;;;;;;4995767;28;20173;-67
2024/03/21 04:11:18;;;;;;;1.60;1.20;;;23.00;55.80;;;;;;4995112;28;20482;-67
2024/03/21 04:13:44;;;;;;;1.50;1.20;;;23.00;55.80;;;;;;4995589;28;20177;-66
2024/03/21 04:16:15;;;;;;;1.83;1.60;;;23.00;55.80;;;;;;4996132;28;20443;-67
2024/03/21 04:18:40;;;;;;;1.77;1.20;;;23.10;55.90;;;;;;4995925;28;20185;-66
2024/03/21 04:21:06;;;;;;;1.70;1.10;;;23.10;55.90;;;;;;4996017;28;20541;-67
2024/03/21 04:23:31;;;;;;;1.37;1.20;;;23.10;55.90;;;;;;4995749;28;20525;-66
2024/03/21 04:25:57;;;;;;;1.47;1.37;;;23.10;55.90;;;;;;4994958;28;20212;-67
2024/03/21 04:28:22;;;;;;;1.80;1.30;;;23.10;55.80;;;;;;4995574;28;20169;-67
2024/03/21 04:30:48;;;;;;;1.27;1.17;;;23.10;55.80;;;;;;4995578;28;20584;-67
2024/03/21 04:33:14;;;;;;;1.30;1.03;;;23.10;55.90;;;;;;4995411;28;20187;-66
2024/03/21 04:35:39;;;;;;;1.20;1.10;;;23.10;55.80;;;;;;4995661;28;20239;-67
2024/03/21 04:38:07;;;;;;;1.10;1.00;;;23.10;55.80;;;;;;4995605;28;20212;-66
2024/03/21 04:40:33;;;;;;;1.83;1.00;;;23.10;55.80;;;;;;4995588;28;20196;-67
2024/03/21 04:42:59;;;;;;;1.43;1.07;;;23.10;55.80;;;;;;4995483;28;20424;-66
2024/03/21 04:45:24;;;;;;;1.50;1.10;;;23.10;55.80;;;;;;4994896;28;20412;-67
2024/03/21 04:47:51;;;;;;;1.80;1.47;;;23.10;55.80;;;;;;4994691;28;20191;-66
2024/03/21 04:50:17;;;;;;;1.63;1.37;;;23.00;55.70;;;;;;4995388;28;20623;-66
2024/03/21 04:52:42;;;;;;;1.57;1.20;;;23.00;55.80;;;;;;4995368;28;20408;-65
2024/03/21 04:55:08;;;;;;;1.40;1.10;;;23.00;55.70;;;;;;4995176;28;20173;-67
2024/03/21 04:57:33;;;;;;;1.23;1.10;;;23.00;55.70;;;;;;4995517;28;20600;-64
2024/03/21 04:59:59;;;;;;;1.27;1.10;;;23.00;55.80;;;;;;4994853;28;20580;-67
2024/03/21 05:02:24;;;;;;;1.37;1.27;;;23.00;55.80;;;;;;4995647;28;20181;-67
2024/03/21 05:04:50;;;;;;;1.00;0.90;;;23.00;55.80;;;;;;4978153;28;20180;-66
2024/03/21 05:07:15;;;;;;;1.30;1.00;;;23.00;55.80;;;;;;4995390;28;20173;-67
2024/03/21 05:09:41;;;;;;;1.47;0.90;;;23.10;55.90;;;;;;4995288;28;20679;-66
2024/03/21 05:12:07;;;;;;;1.40;1.07;;;23.00;55.80;;;;;;4995366;28;20347;-67
2024/03/21 05:14:34;;;;;;;1.50;0.90;;;23.10;55.90;;;;;;4995351;28;20181;-67
2024/03/21 05:17:01;;;;;;;1.50;1.10;;;23.10;55.90;;;;;;4995633;28;20200;-67
2024/03/21 05:19:27;;;;;;;1.50;1.23;;;23.10;55.90;;;;;;4994911;28;20964;-66
2024/03/21 05:21:52;;;;;;;1.73;1.03;;;23.10;55.90;;;;;;4995362;28;20740;-67
2024/03/21 05:24:18;;;;;;;1.30;1.00;;;23.10;55.90;;;;;;4995571;28;20416;-67
2024/03/21 05:26:43;;;;;;;1.70;1.40;;;23.10;55.90;;;;;;4994796;28;20189;-67
2024/03/21 05:29:09;;;;;;;1.30;1.10;;;23.10;55.90;;;;;;4995313;28;20185;-66
2024/03/21 05:31:34;;;;;;;1.33;1.23;;;23.10;55.90;;;;;;4994839;28;20231;-67
2024/03/21 05:34:00;;;;;;;1.20;1.10;;;23.10;55.90;;;;;;4994945;28;20180;-66
2024/03/21 05:36:26;;;;;;;1.30;1.07;;;23.10;55.80;;;;;;4995731;28;20212;-67
2024/03/21 05:38:52;;;;;;;1.13;0.90;;;23.20;55.90;;;;;;4998385;28;20177;-66
2024/03/21 05:41:17;;;;;;;1.23;1.10;;;23.20;55.90;;;;;;4998632;28;20181;-68
2024/03/21 05:43:43;;;;;;;1.40;1.00;;;23.20;56.40;;;;;;4999060;28;20173;-66
2024/03/21 05:46:09;;;;;;;1.57;1.40;;;23.20;55.90;;;;;;4998278;28;20177;-67
2024/03/21 05:48:35;;;;;;;1.50;1.20;;;23.20;55.90;;;;;;4998974;28;20552;-67
2024/03/21 05:51:02;;;;;;;1.63;1.27;;;23.20;56.40;;;;;;4998187;28;20663;-66
2024/03/21 05:53:28;;;;;;;1.73;1.00;;;23.20;55.80;;;;;;4998150;28;20415;-64
2024/03/21 05:55:59;;;;;;;1.40;1.20;;;23.20;55.90;;;;;;4998144;28;20408;-67
2024/03/21 05:58:25;;;;;;;1.67;1.07;;;23.20;55.80;;;;;;4980795;28;20480;-67
2024/03/21 06:01:04;;;;;;;1.40;1.30;;;23.20;55.80;;;;;;4998450;28;20850;-67
2024/03/21 06:03:30;;;;;;;1.20;1.10;;;23.20;55.80;;;;;;4998356;28;20172;-67
2024/03/21 06:05:56;;;;;;;1.50;1.27;;;23.20;55.80;;;;;;4998097;28;20519;-67
2024/03/21 06:08:22;;;;;;;1.50;1.10;;;23.20;55.80;;;;;;4998619;28;21114;-64
2024/03/21 06:10:48;;;;;;;1.50;1.20;;;23.20;55.80;;;;;;4998130;28;20236;-67
2024/03/21 06:13:13;;;;;;;1.80;1.00;;;23.20;55.80;;;;;;4979574;28;20173;-67
2024/03/21 06:15:39;;;;;;;1.10;0.90;;;23.20;55.80;;;;;;4997719;28;20427;-67
2024/03/21 06:18:05;;;;;;;1.57;1.20;;;23.20;55.80;;;;;;4997121;28;20260;-67
2024/03/21 06:20:30;;;;;;;1.40;1.23;;;23.20;55.80;;;;;;4997201;28;20201;-67
2024/03/21 06:22:56;;;;;;;2.20;1.37;;;23.20;55.80;;;;;;4997333;28;20208;-66
2024/03/21 06:25:21;;;;;;;1.30;1.00;;;23.20;55.80;;;;;;4997390;28;20181;-67
2024/03/21 06:27:48;;;;;;;1.60;1.00;;;23.20;55.80;;;;;;4996646;28;20216;-66
2024/03/21 06:30:14;;;;;;;1.53;1.20;;;23.20;55.80;;;;;;4996779;28;20201;-67
2024/03/21 06:32:40;;;;;;;1.20;0.90;;;23.20;55.80;;;;;;4997534;28;20804;-67
2024/03/21 06:35:06;;;;;;;1.00;0.90;;;23.20;55.80;;;;;;4996690;28;20416;-67
2024/03/21 06:37:33;;;;;;;1.40;1.23;;;23.20;55.80;;;;;;4996724;28;20421;-66
2024/03/21 06:39:59;;;;;;;2.27;1.43;;;23.20;55.80;;;;;;4997206;28;20233;-66
2024/03/21 06:42:25;;;;;;;1.43;1.10;;;23.20;55.80;;;;;;4996934;28;20412;-67
2024/03/21 06:44:51;;;;;;;1.20;1.00;;;23.20;55.80;;;;;;4997110;28;20416;-64
2024/03/21 06:47:16;;;;;;;1.87;1.40;;;23.20;55.90;;;;;;4997095;28;20256;-64
2024/03/21 06:49:42;;;;;;;1.27;0.90;;;23.30;55.90;;;;;;4996106;28;20224;-67
2024/03/21 06:52:07;;;;;;;1.33;1.23;;;23.30;55.90;;;;;;4996662;28;20208;-65
2024/03/21 06:54:33;;;;;;;1.20;0.90;;;23.30;56.00;;;;;;4979273;28;20181;-67
2024/03/21 06:56:58;;;;;;;1.07;0.90;;;23.30;55.90;;;;;;4979195;28;20185;-67
2024/03/21 06:59:25;;;;;;;1.40;1.03;;;23.30;55.90;;;;;;4996430;28;20205;-68
2024/03/21 07:01:51;;;;;;;1.23;1.10;;;23.30;55.90;;;;;;4996021;28;20177;-67
2024/03/21 07:04:17;;;;;;;1.30;1.20;;;23.30;55.90;;;;;;4995827;28;20841;-65
2024/03/21 07:06:42;;;;;;;1.40;1.00;;;23.30;55.90;;;;;;4995778;28;20177;-67
2024/03/21 07:09:08;;;;;;;1.20;1.00;;;23.30;55.90;;;;;;4996213;28;20208;-67
2024/03/21 07:11:33;;;;;;;1.30;1.10;;;23.30;55.90;;;;;;4996128;28;20215;-66
2024/03/21 07:14:01;;;;;;;1.30;1.00;;;23.30;55.90;;;;;;4996187;28;20181;-67
2024/03/21 07:16:27;;;;;;;1.30;1.17;;;23.30;55.80;;;;;;4996242;28;20173;-66
2024/03/21 07:18:53;;;;;;;1.00;0.90;;;23.40;55.90;;;;;;4996235;28;20609;-67
2024/03/21 07:21:19;;;;;;;1.10;0.83;;;23.40;55.90;;;;;;4996657;28;20592;-66
2024/03/21 07:23:44;;;;;;;1.07;0.83;;;23.40;55.90;;;;;;4979180;28;20424;-66
2024/03/21 07:26:10;;;;;;;1.30;1.10;;;23.40;55.90;;;;;;4996707;28;20181;-67
2024/03/21 07:28:35;;;;;;;1.10;1.00;;;23.40;55.90;;;;;;4995953;28;20185;-66
2024/03/21 07:31:01;;;;;;;1.37;0.90;;;23.40;55.90;;;;;;4996036;28;20269;-66
2024/03/21 07:33:26;;;;;;;1.40;1.00;;;23.40;55.90;;;;;;4995765;28;20173;-66
2024/03/21 07:35:56;;;;;;;1.27;1.10;;;23.40;56.00;;;;;;4996126;28;20237;-66
2024/03/21 07:38:22;;;;;;;1.27;1.00;;;23.40;56.00;;;;;;4995633;28;20204;-66
2024/03/21 07:40:57;;;;;;;1.10;1.00;;;23.40;55.90;;;;;;4995691;28;20432;-66
2024/03/21 07:43:24;;;;;;;1.17;0.80;;;23.40;55.90;;;;;;4996236;28;20437;-67
2024/03/21 07:45:49;;;;;;;1.10;0.90;;;23.40;56.00;;;;;;4995740;28;20507;-66
2024/03/21 07:48:16;;;;;;;1.50;1.10;;;23.40;55.90;;;;;;4995573;28;20483;-66
2024/03/21 07:50:42;;;;;;;1.40;1.00;;;23.40;55.90;;;;;;4995448;28;21027;-66
2024/03/21 07:53:08;;;;;;;1.30;0.90;;;23.40;55.90;;;;;;4995411;28;20177;-66
2024/03/21 07:55:33;;;;;;;1.10;0.97;;;23.40;55.90;;;;;;4995419;28;20204;-66
2024/03/21 07:58:04;;;;;;;1.03;0.90;;;23.50;56.00;;;;;;4995872;28;20204;-66
2024/03/21 08:00:30;;;;;;;1.30;1.00;;;23.50;56.00;;;;;;4977133;28;20295;-67
2024/03/21 08:02:56;;;;;;;1.30;0.90;;;23.50;56.00;;;;;;4996220;28;20456;-66
2024/03/21 08:05:22;;;;;;;1.10;0.90;;;23.50;56.00;;;;;;4995185;28;20659;-67
2024/03/21 08:07:47;;;;;;;1.10;0.80;;;23.50;56.00;;;;;;4995698;28;20180;-67
2024/03/21 08:10:13;;;;;;;1.07;0.83;;;23.50;55.90;;;;;;4995041;28;20211;-66
2024/03/21 08:12:39;;;;;;;1.33;1.20;;;23.50;56.00;;;;;;4995581;28;20177;-67
2024/03/21 08:15:05;;;;;;;1.27;1.10;;;23.50;56.00;;;;;;4995356;28;20419;-67
2024/03/21 08:17:31;;;;;;;1.20;0.90;;;23.50;56.00;;;;;;4995312;28;20169;-67
2024/03/21 08:19:57;;;;;;;1.07;0.87;;;23.50;56.00;;;;;;4995249;28;20447;-67
2024/03/21 08:22:23;;;;;;;1.40;1.07;;;23.50;56.00;;;;;;4995394;28;20204;-67
2024/03/21 08:24:48;;;;;;;1.53;1.10;;;23.50;56.00;;;;;;4995977;28;20424;-67
2024/03/21 08:27:18;;;;;;;1.07;0.93;;;23.50;56.00;;;;;;4995456;28;20422;-64
2024/03/21 08:29:45;;;;;;;1.20;0.80;;;23.50;56.00;;;;;;4996038;28;20215;-66
2024/03/21 08:32:11;;;;;;;1.50;1.40;;;23.50;56.00;;;;;;4994845;28;20460;-67
2024/03/21 08:34:37;;;;;;;1.40;1.10;;;23.50;56.00;;;;;;4995328;28;20416;-65
2024/03/21 08:37:03;;;;;;;1.33;1.20;;;23.50;56.00;;;;;;4995221;28;20418;-67
2024/03/21 08:39:28;;;;;;;1.00;0.80;;;23.50;56.00;;;;;;4995303;28;20193;-66
2024/03/21 08:41:54;;;;;;;1.20;0.80;;;23.50;56.00;;;;;;4995340;28;20179;-66
2024/03/21 08:44:19;;;;;;;1.10;0.80;;;23.50;56.00;;;;;;4995159;28;20678;-67
2024/03/21 08:46:45;;;;;;;1.93;1.00;;;23.50;56.00;;;;;;4995742;28;20173;-67
2024/03/21 08:49:12;;;;;;;1.10;1.00;;;23.50;56.00;;;;;;4995083;28;20176;-66
2024/03/21 08:51:38;;;;;;;1.10;0.90;;;23.50;56.00;;;;;;4994864;28;20216;-67
2024/03/21 08:54:04;;;;;;;1.23;1.00;;;23.50;56.00;;;;;;4994677;28;20408;-67
2024/03/21 08:56:31;;;;;;;1.20;0.90;;;23.50;56.00;;;;;;4995461;28;20181;-66
2024/03/21 08:58:56;;;;;;;1.37;1.03;;;23.50;56.00;;;;;;4994747;28;20176;-66
2024/03/21 09:01:22;;;;;;;1.20;1.10;;;23.50;56.00;;;;;;4994358;28;20424;-66
2024/03/21 09:03:48;;;;;;;1.17;0.90;;;23.50;56.00;;;;;;4994686;28;20216;-67
2024/03/21 09:06:13;;;;;;;1.13;0.97;;;23.50;56.00;;;;;;4995278;28;20185;-67
2024/03/21 09:08:39;;;;;;;1.10;1.00;;;23.50;56.00;;;;;;4994526;28;20179;-67
2024/03/21 09:11:05;;;;;;;1.00;0.80;;;23.50;56.00;;;;;;4994405;28;20204;-66
2024/03/21 09:13:31;;;;;;;1.43;0.90;;;23.50;56.00;;;;;;4998460;28;20169;-67
2024/03/21 09:15:57;;;;;;;1.27;0.90;;;23.50;56.00;;;;;;4998017;28;20177;-66
2024/03/21 09:18:23;;;;;;;1.10;0.90;;;23.50;56.00;;;;;;4998752;28;20489;-67
2024/03/21 09:20:50;;;;;;;1.00;0.90;;;23.50;56.00;;;;;;4998653;28;20424;-66
2024/03/21 09:23:16;;;;;;;1.10;0.90;;;23.50;56.00;;;;;;4998611;28;20201;-67
2024/03/21 09:25:42;;;;;;;1.00;0.87;;;23.50;56.00;;;;;;4999189;28;20781;-66
2024/03/21 09:28:07;;;;;;;0.90;0.70;;;23.50;56.00;;;;;;4999172;28;20204;-67
2024/03/21 09:30:33;;;;;;;1.23;0.97;;;23.50;56.60;;;;;;4981569;28;20243;-66
2024/03/21 09:32:59;;;;;;;1.60;1.07;;;23.50;56.00;;;;;;4998753;28;20169;-66
2024/03/21 09:35:24;;;;;;;1.20;0.80;;;23.50;56.00;;;;;;4980988;28;20192;-67
2024/03/21 09:37:50;;;;;;;1.00;0.73;;;23.50;56.00;;;;;;4998362;28;20169;-67
2024/03/21 09:40:17;;;;;;;1.00;0.90;;;23.50;56.00;;;;;;4998138;28;20212;-67
2024/03/21 09:42:43;;;;;;;1.00;0.90;;;23.50;56.00;;;;;;4998552;28;20204;-67
2024/03/21 09:45:20;;;;;;;1.10;1.00;;;23.50;56.00;;;;;;4998824;28;20411;-65
2024/03/21 09:47:46;;;;;;;1.07;0.97;;;23.50;56.10;;;;;;4998056;28;20160;-66
2024/03/21 09:50:12;;;;;;;1.30;1.00;;;23.50;56.10;;;;;;4980428;28;20826;-67
2024/03/21 09:52:38;;;;;;;1.10;0.80;;;23.50;56.00;;;;;;4998255;28;20177;-66
2024/03/21 09:55:14;;;;;;;1.03;0.90;;;23.50;56.00;;;;;;4997968;28;20188;-67
2024/03/21 09:57:44;;;;;;;1.50;1.10;;;23.50;56.00;;;;;;4998240;28;20411;-67
2024/03/21 10:00:10;;;;;;;1.10;0.80;;;23.50;56.00;;;;;;4980080;28;20431;-67
2024/03/21 10:02:37;;;;;;;1.30;0.90;;;23.50;56.10;;;;;;4997654;28;20412;-66
2024/03/21 10:05:05;;;;;;;1.13;0.87;;;23.50;56.10;;;;;;4998623;28;20408;-67
2024/03/21 10:07:32;;;;;;;1.60;1.50;;;23.50;56.10;;;;;;4997982;28;20577;-67
2024/03/21 10:09:58;;;;;;;1.40;1.00;;;23.50;56.10;;;;;;4998020;28;20431;-67
2024/03/21 10:12:25;;;;;;;1.30;1.20;;;23.50;56.10;;;;;;4997126;28;20486;-67
2024/03/21 10:14:55;;;;;;;1.00;0.70;;;23.50;56.00;;;;;;4997776;28;20439;-66
2024/03/21 10:17:21;;;;;;;1.03;0.90;;;23.50;56.10;;;;;;4997311;28;20408;-67
2024/03/21 10:19:46;;;;;;;1.20;1.00;;;23.50;56.10;;;;;;4997106;28;20443;-66
2024/03/21 10:22:19;;;;;;;1.17;0.90;;;23.50;56.10;;;;;;4997300;28;20427;-65
2024/03/21 10:24:56;;;;;;;1.40;0.90;;;23.50;56.10;;;;;;4997029;28;20232;-65
2024/03/21 10:27:22;;;;;;;1.20;0.80;;;23.50;56.10;;;;;;4980541;28;20455;-66
2024/03/21 10:29:49;;;;;;;1.07;0.90;;;23.50;56.10;;;;;;4997145;28;20448;-66
2024/03/21 10:32:22;;;;;;;1.17;0.90;;;23.50;56.10;;;;;;4997100;28;20460;-67
2024/03/21 10:34:50;;;;;;;1.10;0.80;;;23.50;56.10;;;;;;4980180;28;20420;-66
2024/03/21 10:37:19;;;;;;;0.90;0.70;;;23.50;56.10;;;;;;4997081;28;20454;-65
2024/03/21 10:39:46;;;;;;;1.23;0.90;;;23.50;56.10;;;;;;4996969;28;20483;-67
2024/03/21 10:42:31;;;;;;;0.90;0.80;;;23.50;56.10;;;;;;4997062;28;20428;-66
2024/03/21 10:45:03;;;;;;;1.00;0.70;;;23.50;56.10;;;;;;4996929;28;20451;-66
2024/03/21 10:47:29;;;;;;;1.00;0.80;;;23.50;56.10;;;;;;4997081;28;20463;-67
2024/03/21 10:49:55;;;;;;;1.17;0.97;;;23.50;56.10;;;;;;4997219;28;20469;-66
2024/03/21 10:52:21;;;;;;;1.43;0.97;;;23.50;56.10;;;;;;4997183;28;20208;-66
2024/03/21 10:54:51;;;;;;;1.20;0.80;;;23.50;56.10;;;;;;4997693;28;20412;-66
2024/03/21 10:57:29;;;;;;;1.30;0.90;;;23.50;56.10;;;;;;4996644;28;20533;-66
2024/03/21 11:00:10;;;;;;;1.13;0.80;;;23.50;56.10;;;;;;4996646;28;20432;-67
2024/03/21 11:02:36;;;;;;;1.00;0.80;;;23.50;56.10;;;;;;4996760;28;20404;-66
2024/03/21 11:05:16;;;;;;;0.90;0.80;;;23.50;56.10;;;;;;4979620;28;20424;-66
2024/03/21 11:07:44;;;;;;;1.30;1.00;;;23.50;56.60;;;;;;4996859;28;20440;-67
2024/03/21 11:10:20;;;;;;;1.10;0.80;;;23.50;56.10;;;;;;4996447;28;20899;-66
2024/03/21 11:12:47;;;;;;;0.97;0.83;;;23.50;56.10;;;;;;4996451;28;20408;-67
2024/03/21 11:15:13;;;;;;;1.10;0.87;;;23.50;56.10;;;;;;4996369;28;20423;-68
2024/03/21 11:17:39;;;;;;;1.33;1.23;;;23.50;56.10;;;;;;4996397;28;20495;-67
2024/03/21 11:20:09;;;;;;;1.00;0.73;;;23.50;56.10;;;;;;4996935;28;20429;-67
2024/03/21 11:22:44;;;;;;;1.10;0.87;;;23.50;56.10;;;;;;4996501;28;20504;-67
2024/03/21 11:25:14;;;;;;;1.00;0.80;;;23.50;56.10;;;;;;4996737;28;20462;-67
2024/03/21 11:27:41;;;;;;;1.10;0.90;;;23.50;56.20;;;;;;4979673;28;20427;-67
2024/03/21 11:30:08;;;;;;;1.30;1.00;;;23.50;56.10;;;;;;4978386;28;20444;-67
2024/03/21 11:32:34;;;;;;;1.20;0.90;;;23.50;56.10;;;;;;4995685;28;20499;-66
2024/03/21 11:34:59;;;;;;;1.10;0.80;;;23.50;56.10;;;;;;4995828;28;20443;-67
2024/03/21 11:37:25;;;;;;;0.90;0.70;;;23.50;56.10;;;;;;4996313;28;20177;-66
2024/03/21 11:39:51;;;;;;;1.00;0.80;;;23.50;56.10;;;;;;4996050;28;20242;-66
2024/03/21 11:42:19;;;;;;;1.00;0.80;;;23.50;56.10;;;;;;4995887;28;20211;-67
2024/03/21 11:44:46;;;;;;;0.90;0.70;;;23.50;56.10;;;;;;4995744;28;20181;-65
2024/03/21 11:47:16;;;;;;;1.30;0.90;;;23.50;56.10;;;;;;4995763;28;20412;-66
2024/03/21 11:49:42;;;;;;;1.30;0.93;;;23.50;56.10;;;;;;4995667;28;20448;-67
2024/03/21 11:52:15;;;;;;;1.03;0.90;;;23.50;56.20;;;;;;4996239;28;20467;-65
2024/03/21 11:54:41;;;;;;;1.00;0.80;;;23.50;56.10;;;;;;4996036;28;20923;-67
2024/03/21 11:57:13;;;;;;;1.00;0.83;;;23.50;56.10;;;;;;4995374;28;20941;-67
2024/03/21 11:59:41;;;;;;;1.00;0.80;;;23.50;56.10;;;;;;4995234;28;20444;-67
2024/03/21 12:02:11;;;;;;;1.03;0.83;;;23.50;56.10;;;;;;4995951;28;20420;-65
2024/03/21 12:04:37;;;;;;;0.90;0.80;;;23.50;56.10;;;;;;4995460;28;20439;-67
2024/03/21 12:07:03;;;;;;;1.10;1.00;;;23.50;56.20;;;;;;4997543;28;20963;-66
2024/03/21 12:09:28;;;;;;;1.43;0.87;;;23.50;56.20;;;;;;4997369;28;20633;-66
2024/03/21 12:11:54;;;;;;;1.50;0.90;;;23.50;56.10;;;;;;4997057;28;20488;-65
2024/03/21 12:14:20;;;;;;;1.17;0.80;;;23.50;56.10;;;;;;4997820;28;20177;-67
2024/03/21 12:16:45;;;;;;;1.10;0.80;;;23.50;56.10;;;;;;4997530;28;20177;-66
2024/03/21 12:19:11;;;;;;;1.00;0.90;;;23.50;56.10;;;;;;4996886;28;20608;-67
2024/03/21 12:21:36;;;;;;;1.17;0.87;;;23.50;56.20;;;;;;4997357;28;20173;-66
2024/03/21 12:24:02;;;;;;;1.30;1.20;;;23.50;56.10;;;;;;4997681;28;20845;-65
2024/03/21 12:26:28;;;;;;;1.27;0.70;;;23.50;56.10;;;;;;4997803;28;20192;-67
2024/03/21 12:28:53;;;;;;;0.93;0.70;;;23.50;56.10;;;;;;4998069;28;20184;-67
2024/03/21 12:31:19;;;;;;;1.60;0.80;;;23.50;56.20;;;;;;4979957;28;20299;-66
2024/03/21 12:33:45;;;;;;;1.10;0.90;;;23.50;56.10;;;;;;4998478;28;20613;-65
2024/03/21 12:36:11;;;;;;;1.07;0.90;;;23.50;56.10;;;;;;4997590;28;20204;-65
2024/03/21 12:38:38;;;;;;;1.00;0.73;;;23.50;56.10;;;;;;4998231;28;20416;-66
2024/03/21 12:41:05;;;;;;;1.23;0.93;;;23.50;56.20;;;;;;4997143;28;20435;-66
2024/03/21 12:43:31;;;;;;;1.37;1.00;;;23.50;56.20;;;;;;4997404;28;20444;-67
2024/03/21 12:45:57;;;;;;;1.10;0.83;;;23.50;56.10;;;;;;4997456;28;20421;-67
2024/03/21 12:48:28;;;;;;;1.10;0.93;;;23.50;56.20;;;;;;4997840;28;20231;-67
2024/03/21 12:50:54;;;;;;;1.10;0.83;;;23.50;56.10;;;;;;4997221;28;20212;-68